Time;durP1;ratioP1;P1;durP2;ratioP2;P2;SDS_P1;SDS_P2;PMS_P1;PMS_P2;Temp;Humidity;BMP_temperature;BMP_pressure;BME280_temperature;BME280_humidity;BME280_pressure;Samples;Min_cycle;Max_cycle;Signal;HPM_P1;HPM_P2
2023/06/15 00:00:18;;;;;;;3.50;2.67;;;;;;;20.51;59.33;101821.75;5088668;28;20032;-84
2023/06/15 00:02:44;;;;;;;2.92;2.58;;;;;;;20.27;60.76;101815.91;5090378;28;20020;-85
2023/06/15 00:05:10;;;;;;;2.97;2.20;;;;;;;20.29;60.52;101821.19;5080987;28;20471;-84
2023/06/15 00:07:35;;;;;;;4.90;2.90;;;;;;;20.30;60.58;101817.09;5102825;28;20485;-85
2023/06/15 00:10:01;;;;;;;4.97;3.13;;;;;;;20.35;60.43;101830.88;5091401;28;20482;-85
2023/06/15 00:12:26;;;;;;;6.05;3.10;;;;;;;20.21;60.95;101820.44;5089829;28;20160;-85
2023/06/15 00:14:52;;;;;;;7.05;2.60;;;;;;;20.18;60.35;101821.31;5067910;28;20031;-85
2023/06/15 00:17:17;;;;;;;3.95;2.83;;;;;;;20.30;60.52;101817.94;5061915;28;20136;-85
2023/06/15 00:19:44;;;;;;;4.22;2.67;;;;;;;20.30;59.44;101817.09;5067004;28;20127;-86
2023/06/15 00:22:14;;;;;;;3.28;2.70;;;;;;;20.15;61.08;101821.34;5084052;28;20043;-85
2023/06/15 00:24:40;;;;;;;4.13;2.70;;;;;;;20.05;60.60;101815.34;5085269;28;20499;-85
2023/06/15 00:27:08;;;;;;;4.65;2.50;;;;;;;20.04;61.34;101810.06;5070024;28;20077;-85
2023/06/15 00:29:33;;;;;;;5.90;2.40;;;;;;;20.06;61.35;101824.66;5084226;28;20530;-85
2023/06/15 00:31:58;;;;;;;4.28;3.05;;;;;;;19.81;62.59;101820.03;5103935;28;20058;-85
2023/06/15 00:34:24;;;;;;;6.97;3.03;;;;;;;19.97;61.49;101821.53;5077849;28;20059;-85
2023/06/15 00:36:50;;;;;;;6.55;3.25;;;;;;;19.98;61.05;101821.09;5090129;28;20024;-84
2023/06/15 00:39:15;;;;;;;4.68;2.40;;;;;;;19.82;61.55;101820.84;5073560;28;20104;-84
2023/06/15 00:41:41;;;;;;;6.55;2.78;;;;;;;19.84;60.70;101824.88;5074439;28;20067;-84
2023/06/15 00:44:07;;;;;;;4.53;2.90;;;;;;;19.83;61.51;101825.28;5089796;28;20042;-84
2023/06/15 00:46:32;;;;;;;4.18;2.75;;;;;;;19.73;61.64;101829.03;5093813;28;20023;-85
2023/06/15 00:48:58;;;;;;;4.13;3.10;;;;;;;19.77;61.73;101824.94;5094470;28;20677;-84
2023/06/15 00:51:23;;;;;;;3.88;3.08;;;;;;;19.67;62.63;101826.63;5083578;28;20028;-84
2023/06/15 00:53:48;;;;;;;3.38;2.47;;;;;;;19.78;61.72;101822.91;5084901;28;20535;-84
2023/06/15 00:56:17;;;;;;;4.72;2.83;;;;;;;19.68;62.05;101822.53;5075235;28;20032;-85
2023/06/15 00:58:43;;;;;;;3.22;2.80;;;;;;;19.75;61.28;101832.25;5079979;28;21820;-85
2023/06/15 01:01:08;;;;;;;4.88;3.33;;;;;;;19.81;61.58;101827.75;5092917;28;20035;-84
2023/06/15 01:03:35;;;;;;;4.15;2.67;;;;;;;19.59;62.00;101816.53;5086686;28;20176;-84
2023/06/15 01:06:11;;;;;;;5.50;2.95;;;;;;;19.58;62.41;101822.63;5072316;28;20028;-84
2023/06/15 01:08:38;;;;;;;5.18;2.30;;;;;;;19.52;62.27;101819.41;5076685;28;20024;-85
2023/06/15 01:11:04;;;;;;;6.82;2.92;;;;;;;19.50;63.11;101816.19;5095274;28;20028;-84
2023/06/15 01:13:30;;;;;;;4.68;2.67;;;;;;;19.53;62.79;101821.03;5094796;28;20768;-84
2023/06/15 01:15:57;;;;;;;3.53;2.58;;;;;;;19.55;61.73;101818.59;5096712;28;20398;-85
2023/06/15 01:18:25;;;;;;;5.30;3.03;;;;;;;19.49;62.66;101825.94;5101373;28;20547;-85
2023/06/15 01:20:53;;;;;;;4.97;3.22;;;;;;;19.40;63.13;101814.25;5092851;28;20019;-84
2023/06/15 01:23:28;;;;;;;4.38;2.80;;;;;;;19.29;63.65;101820.81;5090618;28;20036;-85
2023/06/15 01:26:08;;;;;;;6.10;3.65;;;;;;;19.27;63.17;101820.41;5088960;28;20024;-84
2023/06/15 01:28:41;;;;;;;6.75;3.45;;;;;;;19.25;63.51;101816.38;5090964;28;20019;-84
2023/06/15 01:31:09;;;;;;;3.92;3.10;;;;;;;19.25;63.27;101816.38;5090320;28;20442;-84
2023/06/15 01:33:46;;;;;;;5.72;2.60;;;;;;;19.18;64.06;101822.91;5069992;28;20432;-85
2023/06/15 01:36:11;;;;;;;4.15;3.10;;;;;;;19.11;64.30;101822.16;5097908;28;20475;-85
2023/06/15 01:38:37;;;;;;;3.72;3.00;;;;;;;19.09;63.19;101814.84;5095655;28;20031;-84
2023/06/15 01:41:04;;;;;;;6.07;3.33;;;;;;;18.95;64.38;101811.28;5097995;28;20503;-85
2023/06/15 01:43:32;;;;;;;3.60;3.17;;;;;;;19.12;63.90;101824.59;5093958;28;20395;-84
2023/06/15 01:45:59;;;;;;;5.72;3.10;;;;;;;19.13;63.68;101819.69;5086822;28;20039;-85
2023/06/15 01:48:26;;;;;;;4.22;2.95;;;;;;;19.03;64.02;101827.03;5085061;28;20028;-84
2023/06/15 01:50:53;;;;;;;4.90;3.35;;;;;;;19.03;63.87;101815.69;5083476;28;20513;-84
2023/06/15 01:53:18;;;;;;;4.15;3.17;;;;;;;18.72;65.11;101817.44;5089572;28;20028;-85
2023/06/15 01:55:44;;;;;;;5.75;3.35;;;;;;;18.87;65.09;101819.03;5093131;28;20027;-84
2023/06/15 01:58:15;;;;;;;8.98;3.80;;;;;;;18.91;64.20;101821.84;5086326;28;20032;-84
2023/06/15 02:00:41;;;;;;;3.88;2.78;;;;;;;18.93;64.19;101823.06;5076573;28;20062;-84
2023/06/15 02:03:06;;;;;;;8.40;3.53;;;;;;;18.83;64.94;101823.91;5077575;28;20116;-84
2023/06/15 02:05:32;;;;;;;3.80;2.88;;;;;;;18.84;64.46;101817.81;5084562;28;20127;-84
2023/06/15 02:07:57;;;;;;;8.02;3.45;;;;;;;18.76;64.88;101821.06;5086381;28;20130;-84
2023/06/15 02:10:23;;;;;;;3.92;2.92;;;;;;;18.79;65.44;101821.09;5079904;28;20035;-83
2023/06/15 02:12:48;;;;;;;4.30;2.97;;;;;;;18.81;64.97;101817.84;5084512;28;20055;-83
2023/06/15 02:15:14;;;;;;;4.05;3.05;;;;;;;18.76;64.53;101819.03;5087112;28;20055;-84
2023/06/15 02:17:41;;;;;;;5.78;3.28;;;;;;;18.79;64.81;101818.25;5095796;28;20031;-84
2023/06/15 02:20:10;;;;;;;5.05;3.17;;;;;;;18.73;65.07;101822.72;5098079;28;20036;-85
2023/06/15 02:22:36;;;;;;;6.72;3.15;;;;;;;18.76;65.52;101816.19;5093008;28;20457;-85
2023/06/15 02:25:01;;;;;;;7.00;3.72;;;;;;;18.71;65.57;101813.81;5081292;28;20131;-84
2023/06/15 02:27:27;;;;;;;5.15;3.25;;;;;;;18.77;64.92;101822.69;5090995;28;20066;-84
2023/06/15 02:29:52;;;;;;;4.78;3.55;;;;;;;18.51;66.09;101812.66;5086668;28;20081;-84
2023/06/15 02:32:34;;;;;;;4.95;2.95;;;;;;;18.58;65.71;101818.31;5091084;28;20774;-84
2023/06/15 02:35:00;;;;;;;6.88;4.00;;;;;;;18.58;65.26;101824.00;5086787;28;20876;-84
2023/06/15 02:37:25;;;;;;;5.60;3.20;;;;;;;18.58;65.14;101821.97;5087616;28;20024;-84
2023/06/15 02:39:50;;;;;;;3.95;3.05;;;;;;;18.53;65.81;101827.22;5076744;28;20066;-84
2023/06/15 02:42:16;;;;;;;4.03;3.13;;;;;;;18.42;66.55;101825.22;5095584;28;20063;-84
2023/06/15 02:44:41;;;;;;;4.53;3.53;;;;;;;18.47;65.98;101821.19;5092054;28;20028;-84
2023/06/15 02:47:06;;;;;;;6.30;3.45;;;;;;;18.33;66.09;101819.19;5079531;28;20069;-84
2023/06/15 02:49:32;;;;;;;6.70;3.67;;;;;;;18.43;66.89;101818.38;5093560;28;20043;-84
2023/06/15 02:51:57;;;;;;;5.15;3.22;;;;;;;18.25;67.01;101817.59;5094857;28;20035;-85
2023/06/15 02:54:23;;;;;;;4.55;2.90;;;;;;;18.30;66.94;101817.19;5095462;28;20484;-85
2023/06/15 02:56:49;;;;;;;4.75;2.88;;;;;;;18.36;66.32;101818.41;5092709;28;20104;-84
2023/06/15 02:59:15;;;;;;;4.25;3.53;;;;;;;18.19;67.76;101813.56;5083209;28;20032;-84
2023/06/15 03:01:41;;;;;;;4.43;2.90;;;;;;;18.25;67.28;101823.25;5083773;28;20043;-84
2023/06/15 03:04:09;;;;;;;4.88;3.28;;;;;;;18.35;67.13;101821.63;5064331;28;20034;-85
2023/06/15 03:06:36;;;;;;;4.20;3.33;;;;;;;18.28;66.26;101817.59;5078442;28;20570;-84
2023/06/15 03:09:02;;;;;;;4.20;2.90;;;;;;;18.33;65.85;101816.38;5068788;28;20027;-84
2023/06/15 03:11:30;;;;;;;7.57;3.60;;;;;;;18.17;67.24;101816.81;5091951;28;20065;-84
2023/06/15 03:13:55;;;;;;;5.43;3.85;;;;;;;18.12;67.55;101820.06;5091771;28;20042;-84
2023/06/15 03:16:24;;;;;;;4.32;3.72;;;;;;;18.04;68.42;101819.25;5091015;28;20383;-84
2023/06/15 03:18:50;;;;;;;4.18;3.35;;;;;;;18.17;67.51;101816.81;5094940;28;20016;-84
2023/06/15 03:21:18;;;;;;;5.50;3.55;;;;;;;18.12;67.73;101817.22;5094526;28;20039;-84
2023/06/15 03:23:44;;;;;;;5.85;3.88;;;;;;;17.90;69.20;101819.28;5090978;28;20388;-84
2023/06/15 03:26:10;;;;;;;3.90;3.20;;;;;;;18.03;68.74;101823.31;5090372;28;20086;-84
2023/06/15 03:28:38;;;;;;;6.28;3.33;;;;;;;17.99;67.98;101814.00;5088553;28;20046;-84
2023/06/15 03:31:05;;;;;;;5.93;3.60;;;;;;;18.04;68.59;101824.91;5077299;28;20046;-84
2023/06/15 03:33:33;;;;;;;5.50;3.45;;;;;;;18.06;68.18;101827.34;5088465;28;20069;-84
2023/06/15 03:36:01;;;;;;;5.47;4.07;;;;;;;17.93;69.47;101832.63;5094526;28;20063;-84
2023/06/15 03:38:26;;;;;;;5.53;3.55;;;;;;;17.88;68.84;101822.53;5089954;28;20028;-84
2023/06/15 03:40:52;;;;;;;5.50;3.28;;;;;;;17.94;67.92;101820.09;5090784;28;20033;-84
2023/06/15 03:43:17;;;;;;;4.47;3.55;;;;;;;17.94;68.26;101822.09;5085915;28;20471;-84
2023/06/15 03:45:42;;;;;;;3.40;2.90;;;;;;;17.94;67.78;101817.25;5091477;28;20027;-84
2023/06/15 03:48:08;;;;;;;5.60;3.40;;;;;;;17.99;67.36;101824.53;5074685;28;22216;-84
2023/06/15 03:50:33;;;;;;;7.28;3.65;;;;;;;17.79;68.95;101824.09;5070993;28;20028;-84
2023/06/15 03:52:59;;;;;;;4.47;3.88;;;;;;;17.91;68.25;101826.56;5087372;28;20526;-84
2023/06/15 03:55:25;;;;;;;7.13;3.50;;;;;;;17.87;68.08;101829.38;5078811;28;20034;-84
2023/06/15 03:57:50;;;;;;;3.97;3.45;;;;;;;17.87;68.85;101825.75;5075329;28;20040;-84
2023/06/15 04:00:16;;;;;;;4.93;3.05;;;;;;;17.82;69.11;101832.63;5094434;28;20151;-84
2023/06/15 04:02:41;;;;;;;5.28;3.88;;;;;;;17.77;69.11;101824.53;5094167;28;20062;-84
2023/06/15 04:05:09;;;;;;;6.38;4.07;;;;;;;17.82;69.29;101829.81;5074934;28;20100;-85
2023/06/15 04:07:34;;;;;;;5.47;4.15;;;;;;;17.75;69.36;101832.63;5080806;28;20035;-84
2023/06/15 04:10:00;;;;;;;5.97;3.80;;;;;;;17.62;70.14;101832.19;5096750;28;20026;-84
2023/06/15 04:12:25;;;;;;;4.80;3.38;;;;;;;17.69;69.09;101820.06;5094218;28;20459;-84
2023/06/15 04:14:50;;;;;;;5.80;3.33;;;;;;;17.74;70.11;101827.34;5083165;28;20051;-85
2023/06/15 04:17:16;;;;;;;6.32;3.92;;;;;;;17.69;69.83;101825.75;5089389;28;20702;-85
2023/06/15 04:19:41;;;;;;;4.15;3.38;;;;;;;17.82;68.93;101828.97;5091274;28;20494;-84
2023/06/15 04:22:07;;;;;;;7.60;3.58;;;;;;;17.73;70.11;101831.38;5076465;28;20027;-85
2023/06/15 04:24:32;;;;;;;6.05;3.33;;;;;;;17.73;69.37;101828.56;5087496;28;20164;-85
2023/06/15 04:26:59;;;;;;;6.78;3.85;;;;;;;17.82;69.36;101828.97;5099987;28;20106;-85
2023/06/15 04:29:28;;;;;;;6.88;4.13;;;;;;;17.87;69.56;101820.09;5097489;28;20073;-85
2023/06/15 04:31:54;;;;;;;6.30;3.83;;;;;;;17.60;71.19;101834.63;5098205;28;20102;-85
2023/06/15 04:34:26;;;;;;;6.82;3.42;;;;;;;17.75;69.50;101834.63;5095353;28;20045;-84
2023/06/15 04:36:52;;;;;;;9.67;3.57;;;;;;;17.78;69.57;101828.97;5083270;28;20122;-84
2023/06/15 04:39:22;;;;;;;10.77;4.55;;;;;;;17.76;70.20;101842.72;5099527;28;20023;-85
2023/06/15 04:41:47;;;;;;;5.72;3.38;;;;;;;17.91;68.72;101840.72;5097227;28;20070;-85
2023/06/15 04:44:13;;;;;;;8.52;4.05;;;;;;;17.96;68.21;101848.81;5078415;28;20028;-84
2023/06/15 04:46:39;;;;;;;5.80;3.17;;;;;;;17.77;71.30;101838.69;5078646;28;20562;-85
2023/06/15 04:49:05;;;;;;;8.05;4.63;;;;;;;17.71;70.12;101833.81;5084602;28;20028;-85
2023/06/15 04:51:30;;;;;;;6.10;3.88;;;;;;;17.88;68.58;101847.22;5086393;28;20645;-85
2023/06/15 04:53:56;;;;;;;8.57;3.83;;;;;;;17.96;68.99;101851.66;5097476;28;20031;-85
2023/06/15 04:56:22;;;;;;;7.78;3.83;;;;;;;17.87;70.59;101845.56;5083870;28;20061;-85
2023/06/15 04:58:48;;;;;;;5.72;4.03;;;;;;;17.67;74.52;101851.63;5084070;28;20027;-85
2023/06/15 05:01:13;;;;;;;5.65;3.67;;;;;;;17.92;70.00;101858.50;5083399;28;20032;-85
2023/06/15 05:03:40;;;;;;;6.47;4.32;;;;;;;17.99;70.05;101859.31;5079784;28;20036;-85
2023/06/15 05:06:05;;;;;;;7.07;3.95;;;;;;;17.91;72.04;101863.38;5090145;28;20027;-85
2023/06/15 05:08:32;;;;;;;5.53;3.85;;;;;;;18.09;69.45;101863.38;5098242;28;20024;-85
2023/06/15 05:10:58;;;;;;;4.78;3.70;;;;;;;17.96;70.39;101865.81;5100364;28;20055;-85
2023/06/15 05:13:23;;;;;;;6.18;4.25;;;;;;;17.96;71.65;101862.16;5095213;28;20027;-85
2023/06/15 05:15:50;;;;;;;6.25;3.72;;;;;;;18.10;67.90;101867.00;5093576;28;20555;-85
2023/06/15 05:18:16;;;;;;;6.07;3.85;;;;;;;18.16;69.10;101868.22;5096353;28;20369;-85
2023/06/15 05:20:41;;;;;;;7.90;4.60;;;;;;;18.19;69.52;101867.41;5096686;28;20038;-85
2023/06/15 05:23:07;;;;;;;5.78;4.05;;;;;;;18.27;67.81;101869.00;5095813;28;20102;-85
2023/06/15 05:25:33;;;;;;;4.90;3.90;;;;;;;18.27;69.73;101874.69;5074993;28;20152;-85
2023/06/15 05:27:58;;;;;;;5.28;3.85;;;;;;;18.14;69.59;101867.81;5086542;28;20035;-85
2023/06/15 05:30:26;;;;;;;6.10;3.75;;;;;;;18.20;70.79;101877.53;5080406;28;20028;-85
2023/06/15 05:32:52;;;;;;;6.40;4.07;;;;;;;18.13;71.23;101874.69;5098192;28;20034;-85
2023/06/15 05:35:17;;;;;;;6.18;4.65;;;;;;;18.16;73.91;101883.19;5103167;28;20107;-86
2023/06/15 05:37:43;;;;;;;6.82;4.03;;;;;;;18.22;71.19;101870.22;5092927;28;20032;-85
2023/06/15 05:40:08;;;;;;;6.68;4.22;;;;;;;18.32;69.34;101873.44;5098819;28;20429;-85
2023/06/15 05:42:34;;;;;;;8.95;4.85;;;;;;;18.37;72.14;101876.69;5092440;28;20031;-85
2023/06/15 05:45:00;;;;;;;7.25;3.72;;;;;;;18.45;68.14;101872.63;5095600;28;20074;-85
2023/06/15 05:47:25;;;;;;;6.00;4.10;;;;;;;18.57;65.96;101879.88;5098794;28;20491;-86
2023/06/15 05:49:51;;;;;;;7.90;4.35;;;;;;;18.56;67.82;101880.28;5097711;28;20027;-85
2023/06/15 05:52:17;;;;;;;6.78;4.88;;;;;;;18.59;68.29;101879.47;5095993;28;20126;-85
2023/06/15 05:54:46;;;;;;;8.70;5.75;;;;;;;18.40;71.50;101883.56;5094057;28;20035;-85
2023/06/15 05:57:12;;;;;;;5.85;4.63;;;;;;;18.45;68.42;101881.13;5076338;28;20027;-84
2023/06/15 05:59:38;;;;;;;5.05;3.58;;;;;;;18.53;67.83;101889.59;5072129;28;20027;-85
2023/06/15 06:02:04;;;;;;;5.72;4.28;;;;;;;18.69;71.50;101889.97;5098151;28;20093;-85
2023/06/15 06:04:29;;;;;;;5.55;4.53;;;;;;;18.80;70.63;101887.94;5090389;28;20132;-85
2023/06/15 06:06:54;;;;;;;7.75;3.83;;;;;;;18.91;67.13;101889.91;5085892;28;20027;-85
2023/06/15 06:09:20;;;;;;;3.13;2.80;;;;;;;19.75;70.48;101889.06;5095132;28;20101;-78
2023/06/15 06:11:48;;;;;;;6.85;3.58;;;;;;;20.94;65.10;101892.38;5081739;28;20502;-78
2023/06/15 06:14:14;;;;;;;9.70;4.20;;;;;;;21.50;56.47;101897.75;5075036;28;20023;-78
2023/06/15 06:16:40;;;;;;;6.00;4.25;;;;;;;19.79;62.47;101895.53;5077739;28;20028;-79
2023/06/15 06:19:05;;;;;;;6.03;3.35;;;;;;;20.46;62.31;101905.50;5096041;28;20039;-78
2023/06/15 06:21:32;;;;;;;5.25;3.38;;;;;;;21.17;63.87;101897.38;5073239;28;20484;-78
2023/06/15 06:23:58;;;;;;;6.40;3.25;;;;;;;21.19;60.19;101900.59;5082637;28;20051;-78
2023/06/15 06:26:23;;;;;;;8.18;4.40;;;;;;;20.44;65.57;101896.56;5078979;28;20471;-78
2023/06/15 06:28:48;;;;;;;10.20;3.72;;;;;;;21.62;61.34;101894.31;5077646;28;20019;-79
2023/06/15 06:31:14;;;;;;;5.00;3.15;;;;;;;22.29;58.73;101896.50;5084837;28;20472;-80
2023/06/15 06:33:40;;;;;;;9.30;3.95;;;;;;;22.24;58.54;101906.38;5086585;28;20088;-79
2023/06/15 06:36:08;;;;;;;6.15;3.60;;;;;;;21.88;58.47;101900.41;5077840;28;20803;-80
2023/06/15 06:38:34;;;;;;;6.18;3.38;;;;;;;21.88;53.80;101889.03;5094627;28;20392;-79
2023/06/15 06:40:59;;;;;;;5.70;4.20;;;;;;;20.08;63.78;101901.78;5077218;28;20053;-79
2023/06/15 06:43:24;;;;;;;5.35;3.30;;;;;;;21.56;60.34;101896.03;5100398;28;20057;-79
2023/06/15 06:45:50;;;;;;;7.38;3.55;;;;;;;22.32;57.56;101895.63;5100797;28;20077;-79
2023/06/15 06:48:16;;;;;;;6.30;3.50;;;;;;;20.71;62.40;101898.75;5095630;28;20118;-79
2023/06/15 06:50:41;;;;;;;6.70;3.30;;;;;;;21.89;57.87;101902.03;5100067;28;20395;-79
2023/06/15 06:53:06;;;;;;;4.55;3.97;;;;;;;21.67;55.75;101901.56;5096237;28;20062;-79
2023/06/15 06:55:32;;;;;;;5.03;3.20;;;;;;;22.38;56.41;101899.59;5085668;28;20031;-79
2023/06/15 06:58:00;;;;;;;7.72;3.00;;;;;;;22.32;53.13;101904.97;5094232;28;20134;-79
2023/06/15 07:00:26;;;;;;;5.55;4.28;;;;;;;20.68;59.67;101905.28;5102506;28;20027;-79
2023/06/15 07:02:52;;;;;;;4.78;3.08;;;;;;;20.44;59.68;101905.09;5102207;28;20505;-79
2023/06/15 07:05:17;;;;;;;5.95;4.03;;;;;;;20.49;59.71;101904.66;5099652;28;20042;-79
2023/06/15 07:07:43;;;;;;;4.88;2.92;;;;;;;21.56;57.78;101901.72;5092012;28;20028;-79
2023/06/15 07:10:08;;;;;;;6.28;3.20;;;;;;;22.40;55.26;101902.81;5095587;28;21619;-79
2023/06/15 07:12:33;;;;;;;4.25;3.50;;;;;;;21.99;54.73;101911.63;5097044;28;20028;-79
2023/06/15 07:14:59;;;;;;;5.60;2.97;;;;;;;21.50;57.45;101909.16;5097428;28;20040;-79
2023/06/15 07:17:25;;;;;;;5.72;3.88;;;;;;;20.58;58.46;101898.50;5085394;28;20039;-79
2023/06/15 07:19:50;;;;;;;6.57;3.70;;;;;;;21.33;58.06;101910.97;5076987;28;20468;-79
2023/06/15 07:22:17;;;;;;;3.50;3.20;;;;;;;20.72;58.42;101908.91;5090969;28;20181;-79
2023/06/15 07:24:43;;;;;;;4.70;2.95;;;;;;;22.08;56.02;101909.06;5093356;28;20043;-79
2023/06/15 07:27:08;;;;;;;3.97;2.35;;;;;;;21.96;55.63;101906.81;5093401;28;20028;-79
2023/06/15 07:29:34;;;;;;;7.90;3.20;;;;;;;21.80;53.06;101908.28;5102178;28;20023;-79
2023/06/15 07:31:59;;;;;;;9.32;3.50;;;;;;;20.87;56.29;101901.00;5109871;28;20106;-79
2023/06/15 07:34:25;;;;;;;7.28;3.08;;;;;;;21.61;56.31;101909.81;5097932;28;20488;-80
2023/06/15 07:36:50;;;;;;;6.50;2.90;;;;;;;22.52;53.57;101910.72;5086724;28;20020;-79
2023/06/15 07:39:15;;;;;;;6.82;3.00;;;;;;;22.75;52.62;101914.78;5099438;28;20031;-80
2023/06/15 07:41:41;;;;;;;4.55;2.97;;;;;;;22.96;52.29;101909.88;5103985;28;20098;-79
2023/06/15 07:44:11;;;;;;;5.03;3.45;;;;;;;22.49;52.42;101903.06;5112664;28;20543;-79
2023/06/15 07:46:38;;;;;;;3.95;2.60;;;;;;;22.21;53.00;101895.00;5087787;28;20472;-80
2023/06/15 07:49:03;;;;;;;7.95;3.28;;;;;;;22.13;56.89;101900.00;5102268;28;20020;-80
2023/06/15 07:51:29;;;;;;;5.75;2.90;;;;;;;22.75;51.71;101906.22;5106324;28;20042;-80
2023/06/15 07:53:54;;;;;;;5.38;2.92;;;;;;;22.67;52.19;101902.69;5100660;28;20027;-80
2023/06/15 07:56:19;;;;;;;4.38;3.03;;;;;;;22.56;50.86;101887.84;5107048;28;20045;-80
2023/06/15 07:58:45;;;;;;;3.45;2.75;;;;;;;22.46;53.24;101895.34;5110049;28;20028;-80
2023/06/15 08:01:10;;;;;;;4.93;3.05;;;;;;;22.64;53.77;101891.34;5084934;28;20028;-80
2023/06/15 08:03:36;;;;;;;3.40;2.80;;;;;;;22.47;50.08;101894.13;5098788;28;20065;-80
2023/06/15 08:06:01;;;;;;;4.93;3.08;;;;;;;22.44;50.71;101880.72;5094585;28;20028;-80
2023/06/15 08:08:26;;;;;;;7.28;2.60;;;;;;;22.51;52.53;101892.00;5102527;28;20015;-81
2023/06/15 08:10:52;;;;;;;9.00;3.20;;;;;;;22.74;49.49;101893.97;5108660;28;20039;-80
2023/06/15 08:13:18;;;;;;;4.50;2.75;;;;;;;23.10;50.64;101895.31;5102761;28;20032;-80
2023/06/15 08:15:44;;;;;;;7.20;2.92;;;;;;;23.33;49.58;101894.41;5103186;28;20039;-80
2023/06/15 08:18:09;;;;;;;4.28;3.05;;;;;;;23.29;48.68;101894.47;5093957;28;20031;-80
2023/06/15 08:20:35;;;;;;;5.75;3.30;;;;;;;23.24;48.92;101891.38;5092333;28;20395;-79
2023/06/15 08:23:00;;;;;;;3.92;2.60;;;;;;;23.34;48.83;101885.41;5105285;28;20479;-81
2023/06/15 08:25:25;;;;;;;4.38;2.60;;;;;;;23.51;49.55;101896.88;5086753;28;20031;-81
2023/06/15 08:27:51;;;;;;;4.40;2.78;;;;;;;23.42;49.02;101891.78;5087680;28;20157;-80
2023/06/15 08:30:17;;;;;;;7.78;2.85;;;;;;;23.72;42.98;101892.72;5100459;28;20111;-81
2023/06/15 08:32:42;;;;;;;4.53;2.88;;;;;;;23.20;43.92;101896.34;5084528;28;20038;-80
2023/06/15 08:35:08;;;;;;;2.58;2.17;;;;;;;23.41;47.14;101895.06;5101729;28;20058;-81
2023/06/15 08:37:34;;;;;;;4.45;2.85;;;;;;;23.56;47.42;101895.53;5108158;28;20054;-80
2023/06/15 08:40:05;;;;;;;4.78;2.92;;;;;;;23.44;37.86;101891.31;5092983;28;20031;-80
2023/06/15 08:42:31;;;;;;;4.80;2.70;;;;;;;23.74;39.56;101879.56;5089848;28;20032;-80
2023/06/15 08:44:58;;;;;;;4.35;2.90;;;;;;;23.97;45.47;101892.13;5085598;28;20164;-81
2023/06/15 08:47:24;;;;;;;5.07;3.00;;;;;;;23.59;38.95;101895.47;5086909;28;20020;-79
2023/06/15 08:49:50;;;;;;;3.85;2.58;;;;;;;23.65;38.87;101895.72;5102501;28;20068;-80
2023/06/15 08:52:20;;;;;;;3.60;2.58;;;;;;;23.88;41.97;101889.06;5103111;28;20553;-80
2023/06/15 08:54:48;;;;;;;4.07;2.60;;;;;;;23.92;39.61;101895.50;5083484;28;20024;-80
2023/06/15 08:57:14;;;;;;;4.35;2.58;;;;;;;24.48;39.59;101889.53;5098810;28;20410;-81
2023/06/15 08:59:40;;;;;;;4.38;2.42;;;;;;;24.57;42.57;101899.56;5098353;28;20051;-81
2023/06/15 09:02:14;;;;;;;3.17;2.58;;;;;;;24.29;34.32;101907.66;5097977;28;20377;-81
2023/06/15 09:04:39;;;;;;;4.60;2.92;;;;;;;24.38;39.44;101887.75;5100129;28;20043;-80
2023/06/15 09:07:05;;;;;;;3.92;3.17;;;;;;;24.49;36.19;101885.44;5103938;28;20472;-81
2023/06/15 09:09:30;;;;;;;3.38;2.40;;;;;;;24.50;39.63;101901.38;5101520;28;20088;-81
2023/06/15 09:11:56;;;;;;;6.88;2.92;;;;;;;24.42;38.22;101894.19;5104713;28;20063;-82
2023/06/15 09:14:22;;;;;;;4.65;2.70;;;;;;;24.35;33.92;101897.25;5101881;28;20024;-82
2023/06/15 09:16:50;;;;;;;4.35;3.53;;;;;;;24.47;35.66;101902.22;5086215;28;20048;-81
2023/06/15 09:19:16;;;;;;;4.90;2.60;;;;;;;24.63;33.96;101894.91;5096156;28;20027;-82
2023/06/15 09:21:48;;;;;;;3.47;2.55;;;;;;;24.34;36.62;101885.00;5079707;28;20402;-82
2023/06/15 09:24:16;;;;;;;3.55;2.90;;;;;;;24.72;34.93;101889.31;5083104;28;20047;-82
2023/06/15 09:26:44;;;;;;;6.65;2.67;;;;;;;24.75;38.56;101891.25;5096583;28;20487;-82
2023/06/15 09:29:13;;;;;;;3.90;2.60;;;;;;;24.53;32.92;101886.13;5101657;28;20020;-82
2023/06/15 09:31:40;;;;;;;3.17;2.67;;;;;;;24.52;33.24;101867.38;5111023;28;20028;-82
2023/06/15 09:34:11;;;;;;;3.90;2.45;;;;;;;24.76;36.88;101887.16;5097350;28;20035;-81
2023/06/15 09:36:39;;;;;;;3.90;2.90;;;;;;;24.73;35.32;101873.75;5103769;28;20050;-83
2023/06/15 09:39:05;;;;;;;3.22;2.50;;;;;;;24.57;36.05;101876.66;5097064;28;20039;-82
2023/06/15 09:41:33;;;;;;;3.63;3.13;;;;;;;24.67;33.32;101875.56;5097074;28;20110;-82
2023/06/15 09:44:01;;;;;;;4.07;3.40;;;;;;;24.95;33.26;101883.31;5098586;28;20016;-81
2023/06/15 09:46:28;;;;;;;5.55;3.22;;;;;;;25.16;33.06;101878.19;5104905;28;20019;-82
2023/06/15 09:48:53;;;;;;;3.50;2.58;;;;;;;25.18;39.21;101872.00;5089232;28;20100;-82
2023/06/15 09:51:21;;;;;;;3.72;2.78;;;;;;;25.19;35.21;101873.59;5101989;28;20063;-82
2023/06/15 09:53:51;;;;;;;4.15;2.97;;;;;;;25.14;33.21;101863.53;5099546;28;20024;-82
2023/06/15 09:56:16;;;;;;;3.40;2.95;;;;;;;25.17;36.69;101868.31;5102765;28;20049;-82
2023/06/15 09:58:42;;;;;;;4.03;2.80;;;;;;;24.87;31.50;101872.50;5101981;28;20033;-82
2023/06/15 10:01:09;;;;;;;3.92;2.85;;;;;;;24.94;34.67;101878.84;5098923;28;20051;-82
2023/06/15 10:03:36;;;;;;;4.90;2.92;;;;;;;25.10;32.69;101875.09;5091131;28;20027;-84
2023/06/15 10:06:24;;;;;;;3.28;2.22;;;;;;;25.32;33.75;101885.91;5101315;28;20342;-82
2023/06/15 10:08:56;;;;;;;3.95;2.90;;;;;;;25.39;33.25;101879.97;5100494;28;20036;-81
2023/06/15 10:11:24;;;;;;;4.85;2.88;;;;;;;25.42;34.38;101873.31;5090338;28;20122;-81
2023/06/15 10:14:00;;;;;;;4.63;2.90;;;;;;;25.41;31.26;101882.38;5080403;28;20081;-82
2023/06/15 10:16:30;;;;;;;4.18;2.83;;;;;;;25.45;32.09;101872.41;5086009;28;20184;-82
2023/06/15 10:19:02;;;;;;;5.22;3.72;;;;;;;25.20;31.92;101870.31;5099829;28;20024;-82
2023/06/15 10:21:29;;;;;;;3.22;2.85;;;;;;;25.41;32.77;101876.66;5097248;28;20032;-83
2023/06/15 10:24:00;;;;;;;4.50;3.03;;;;;;;25.58;33.99;101871.59;5100136;28;20074;-82
2023/06/15 10:26:25;;;;;;;3.53;2.83;;;;;;;25.30;30.77;101872.06;5096425;28;21633;-82
2023/06/15 10:28:58;;;;;;;4.18;3.00;;;;;;;25.70;29.48;101877.34;5095302;28;20366;-83
2023/06/15 10:31:35;;;;;;;3.42;3.10;;;;;;;25.67;29.14;101880.31;5080513;28;20053;-82
2023/06/15 10:34:24;;;;;;;5.53;3.08;;;;;;;26.05;28.81;101880.28;5097057;28;20035;-81
2023/06/15 10:37:19;;;;;;;3.65;2.72;;;;;;;26.34;30.17;101876.41;5090790;28;20027;-82
2023/06/15 10:39:46;;;;;;;3.03;2.72;;;;;;;26.13;28.47;101875.09;5093981;28;20034;-81
2023/06/15 10:42:13;;;;;;;3.40;2.60;;;;;;;26.01;30.56;101876.72;5102141;28;20031;-81
2023/06/15 10:44:39;;;;;;;4.07;3.30;;;;;;;25.83;28.82;101870.78;5097872;28;20024;-81
2023/06/15 10:47:09;;;;;;;4.65;3.20;;;;;;;25.92;29.34;101877.44;5097292;28;20450;-81
2023/06/15 10:49:35;;;;;;;4.97;2.95;;;;;;;25.92;29.51;101876.63;5082908;28;20023;-81
2023/06/15 10:52:04;;;;;;;4.00;2.70;;;;;;;25.95;30.11;101875.69;5084902;28;20142;-81
2023/06/15 10:54:29;;;;;;;3.28;2.47;;;;;;;26.06;29.66;101872.50;5084134;28;20441;-81
2023/06/15 10:56:57;;;;;;;3.47;2.63;;;;;;;26.08;26.88;101870.75;5106432;28;20064;-82
2023/06/15 10:59:46;;;;;;;3.53;3.22;;;;;;;26.13;29.76;101870.16;5099813;28;20027;-81
2023/06/15 11:02:26;;;;;;;4.47;2.83;;;;;;;26.39;27.11;101870.06;5100669;28;20050;-81
2023/06/15 11:04:52;;;;;;;5.28;2.53;;;;;;;26.69;25.93;101876.38;5088320;28;20424;-83
2023/06/15 11:07:26;;;;;;;2.55;2.28;;;;;;;26.24;25.04;101868.97;5097798;28;20055;-82
2023/06/15 11:09:52;;;;;;;3.00;2.15;;;;;;;26.88;27.65;101872.41;5094389;28;20495;-82
2023/06/15 11:12:37;;;;;;;4.13;2.83;;;;;;;27.00;27.90;101870.69;5084619;28;20031;-82
2023/06/15 11:15:05;;;;;;;5.68;2.13;;;;;;;26.69;28.63;101870.66;5099551;28;20049;-82
2023/06/15 11:17:51;;;;;;;4.03;2.65;;;;;;;26.60;26.35;101861.97;5108415;28;20092;-83
2023/06/15 11:20:39;;;;;;;2.88;2.05;;;;;;;26.99;25.28;101865.44;5105884;28;20028;-81
2023/06/15 11:23:26;;;;;;;5.20;2.10;;;;;;;27.09;28.39;101861.31;5092230;28;20023;-82